Ana Sayfa
METAR-TAF:

METAR-TAF

Havaalanları :

Duşanbe, Tacikistan

Enlem: 38-33N, Boylam: 068-47E, yükseklik: 803 m

Güncel hava durumu gözlemi

Rapor saat 15:30 UTC de 25 dakika önce yapıldı.
Rüzgar kuzey/kuzeybatıdan 4 kt
Sıcaklık 9°C
Nem 46%
Basınç 1026 hPa
Görüş mesafesi: 7000 m

METAR: UTDD 151530Z 34002MPS 7000 NSC 09/M02 Q1026 R09/D NOSIG RMK QFE700/0934

Saat: 20:55 (15:55 UTC)

Tahmin

Rapor saat 15:00 UTC de 55 dakika önce yapıldı.
Ayın 15'si saat 16 UTC'den ayın 16'si saat 04 UTC'ye kadar geçerli Tahmin
Rüzgar doğu/kuzeydoğudan 10 kt
Görüş mesafesi: 6000 m
6600 ft yükseklikte az bulutlu, Kümülonimbus.
13000 ft yükseklikte parçalı bulutlu
Geçici
ayın 15'si saat 16 UTC'den ayın 16'si saat 04 UTC'ye kadar
Rüzgar değişken yönden 4 kt
Görüş mesafesi: 3100 m
Pus, Duman

TAF: UTDD 151500Z 1516/1604 06005MPS 6000 FEW066CB SCT130 TEMPO 1516/1604 VRB02MPS 3100 BR FU

4.000'den fazla havaalanı için hava durumu gözlemleri ve tahminleri (METAR ve TAF raporları).

Kullanılabilir istasyonlar harita üzerinde sarı ve kırmızı noktalarla gösterilir.

İstasyonun adını görmek için fareyi noktanın üzerinde gezdirin.

Sonrasında hava gözlem ve tahminlerini görmek için tıklayın.

Haritayı değiştirmek için: yaklaştırmak için siyah artı işaretli yeşil düğmeye ve uzaklaştırmak için de eksi işaretli düğmeye hızla tıklayın; bitişik haritalar için yeşil okları kullanın.


METAR-TAF: